Terminal Aerodrome Forecast
Issued by NWS

Home | Current Version | Previous Version | Text Only | Print | Product List | Glossary On
Versions: 1 2 3 4 5 6 7 8 9 10 11 12 13 14
000
FTUS45 KABQ 191100 RRA
TAFROW
TAF
KROW 191142Z 1912/2012 17009KT P6SM SCT080 BKN100
     FM192000 16013KT P6SM VCSH SCT050 BKN080
     FM192300 17008KT P6SM VCTS BKN050CB
     FM200100 VRB04KT P6SM BKN050=

USA.gov is the U.S. government's official web portal to all federal, state and local government web resources and services.